Terminal Aerodrome Forecast
Issued by NWS Nashville, TN

Home | Current Version | Previous Version | Text Only | Print | Product List | Glossary On
Versions: 1 2 3 4 5 6 7 8 9 10 11 12
000
FTUS44 KOHX 281100
TAFBNA
TAF
KBNA 281134Z 2812/2912 10003KT 5SM BR SCT150
     FM281300 11006KT P6SM SCT050
     FM290100 15003KT P6SM SCT150=

USA.gov is the U.S. government's official web portal to all federal, state and local government web resources and services.